Terminal Aerodrome Forecast
Issued by NWS

Home | Current Version | Previous Version | Text Only | Print | Product List | Glossary On
Versions: 1 2 3 4 5 6 7 8 9 10 11 12 13 14 15 16 17
000
FTUS45 KRIW 131700
TAFBPI
TAF
KBPI 131720Z 1318/1418 34011KT 4SM -SHSN SCT012 OVC020
     FM132200 35012KT P6SM VCSH SCT020 BKN045
     FM140300 34008KT P6SM SKC=

USA.gov is the U.S. government's official web portal to all federal, state and local government web resources and services.